Time;durP1;ratioP1;P1;durP2;ratioP2;P2;SDS_P1;SDS_P2;PMS_P1;PMS_P2;Temp;Humidity;BMP_temperature;BMP_pressure;BME280_temperature;BME280_humidity;BME280_pressure;Samples;Min_cycle;Max_cycle;Signal;HPM_P1;HPM_P2
2024/03/24 00:01:38;;;;;;;13.10;11.50;;;;;;;10.21;70.82;98501.42;108776;1255;58996;-74
2024/03/24 00:04:06;;;;;;;14.20;10.20;;;;;;;10.19;71.02;98495.33;108117;1256;73660;-74
2024/03/24 00:06:33;;;;;;;13.50;10.30;;;;;;;10.23;70.86;98492.05;108542;1254;68718;-75
2024/03/24 00:09:00;;;;;;;12.70;10.80;;;;;;;10.31;70.91;98491.13;108727;1256;71411;-75
2024/03/24 00:11:28;;;;;;;13.30;10.70;;;;;;;10.30;70.82;98482.14;108511;1255;59251;-75
2024/03/24 00:13:56;;;;;;;14.50;10.40;;;;;;;10.27;70.87;98485.20;109055;1254;58749;-76
2024/03/24 00:16:23;;;;;;;14.10;11.40;;;;;;;10.24;70.75;98477.22;108936;1254;73388;-77
2024/03/24 00:18:50;;;;;;;14.50;11.30;;;;;;;10.20;70.87;98474.11;108824;1255;68814;-75
2024/03/24 00:21:17;;;;;;;14.10;10.70;;;;;;;10.18;71.19;98467.85;109145;1255;71231;-76
2024/03/24 00:23:45;;;;;;;12.40;10.20;;;;;;;10.16;71.24;98469.59;109067;1254;59412;-77
2024/03/24 00:26:12;;;;;;;11.70;9.80;;;;;;;10.24;71.34;98466.29;108645;1256;60841;-77
2024/03/24 00:28:39;;;;;;;11.30;9.70;;;;;;;10.26;71.21;98459.04;108742;1255;73477;-75
2024/03/24 00:31:07;;;;;;;11.00;9.40;;;;;;;10.23;71.25;98456.96;108736;1254;68876;-75
2024/03/24 00:33:35;;;;;;;14.60;9.30;;;;;;;10.19;71.32;98448.30;107601;1254;74038;-76
2024/03/24 00:36:02;;;;;;;11.90;9.60;;;;;;;10.15;71.50;98452.11;108038;1258;61045;-75
2024/03/24 00:38:29;;;;;;;11.90;10.30;;;;;;;10.12;71.53;98447.77;107921;1254;61129;-75
2024/03/24 00:40:57;;;;;;;11.70;10.20;;;;;;;10.08;71.81;98442.94;108629;1254;73383;-75
2024/03/24 00:43:24;;;;;;;13.00;9.80;;;;;;;10.15;71.66;98446.98;108958;1258;69272;-75
2024/03/24 00:45:52;;;;;;;11.90;10.20;;;;;;;10.17;71.68;98443.08;109043;1254;71119;-76
2024/03/24 00:48:19;;;;;;;12.10;10.00;;;;;;;10.14;71.57;98440.23;108651;1254;59109;-76
2024/03/24 00:50:46;;;;;;;11.70;10.20;;;;;;;10.10;72.19;98445.72;108755;1255;60614;-75
2024/03/24 00:53:14;;;;;;;12.70;10.30;;;;;;;10.04;72.26;98437.85;108238;1254;73677;-73
2024/03/24 00:55:41;;;;;;;13.30;9.20;;;;;;;10.02;72.23;98438.09;108017;1256;68989;-74
2024/03/24 00:58:09;;;;;;;12.00;10.20;;;;;;;10.05;72.33;98435.00;107761;1255;71584;-75
2024/03/24 01:00:37;;;;;;;12.00;10.30;;;;;;;10.06;72.60;98434.11;108528;1260;59669;-76
2024/03/24 01:03:04;;;;;;;11.10;9.70;;;;;;;10.00;72.81;98429.27;108359;1254;58875;-74
2024/03/24 01:05:31;;;;;;;12.10;10.30;;;;;;;9.94;73.07;98434.60;108575;1256;73404;-75
2024/03/24 01:07:58;;;;;;;12.50;10.40;;;;;;;9.89;73.21;98424.76;107539;1255;69022;-76
2024/03/24 01:10:26;;;;;;;12.00;10.00;;;;;;;9.87;73.68;98430.17;107906;1255;72707;-75
2024/03/24 01:12:53;;;;;;;12.80;9.90;;;;;;;9.91;73.66;98424.57;107959;1261;61312;-76
2024/03/24 01:15:21;;;;;;;11.50;10.00;;;;;;;9.89;73.51;98425.05;108977;1254;59093;-76
2024/03/24 01:17:48;;;;;;;12.00;10.20;;;;;;;9.85;74.06;98421.48;107613;1254;73375;-75
2024/03/24 01:20:15;;;;;;;13.10;11.00;;;;;;;9.78;74.19;98418.50;106884;1260;69466;-77
2024/03/24 01:22:45;;;;;;;11.50;9.70;;;;;;;9.73;74.59;98422.09;108789;1253;71339;-74
2024/03/24 01:25:12;;;;;;;12.00;10.10;;;;;;;9.76;74.47;98419.25;107271;1253;61313;-76
2024/03/24 01:27:39;;;;;;;12.80;11.20;;;;;;;9.77;74.58;98415.55;106958;1256;61838;-75
2024/03/24 01:30:07;;;;;;;13.20;10.60;;;;;;;9.73;74.72;98417.77;109275;1254;73642;-77
2024/03/24 01:32:34;;;;;;;13.40;10.60;;;;;;;9.65;74.97;98419.19;109283;1254;69058;-77
2024/03/24 01:35:02;;;;;;;12.70;10.20;;;;;;;9.59;75.14;98412.38;109061;1253;71161;-77
2024/03/24 01:37:29;;;;;;;13.30;10.50;;;;;;;9.60;75.25;98407.86;108972;1256;60507;-77
2024/03/24 01:39:57;;;;;;;11.50;10.20;;;;;;;9.69;75.21;98400.40;108856;1254;58972;-76
2024/03/24 01:42:24;;;;;;;13.70;10.30;;;;;;;9.66;75.38;98396.27;106673;1258;73177;-74
2024/03/24 01:44:51;;;;;;;12.70;10.80;;;;;;;9.61;75.32;98391.52;105561;1256;70155;-75
2024/03/24 01:47:19;;;;;;;13.10;10.90;;;;;;;9.55;75.79;98391.17;105686;1259;70377;-75
2024/03/24 01:49:46;;;;;;;16.50;11.10;;;;;;;9.50;75.57;98400.85;105421;1256;62321;-74
2024/03/24 01:52:14;;;;;;;13.90;11.20;;;;;;;9.54;75.59;98404.43;105302;1256;61230;-75
2024/03/24 01:54:41;;;;;;;14.20;11.10;;;;;;;9.54;75.37;98393.22;105378;1256;74750;-74
2024/03/24 01:57:10;;;;;;;13.30;11.60;;;;;;;9.47;75.59;98398.31;105534;1261;69683;-74
2024/03/24 01:59:37;;;;;;;13.30;10.90;;;;;;;9.40;75.91;98394.23;105280;1258;73812;-74
2024/03/24 02:02:05;;;;;;;12.40;10.50;;;;;;;9.36;76.26;98395.01;105475;1258;61256;-76
2024/03/24 02:04:32;;;;;;;15.70;12.20;;;;;;;9.38;76.37;98405.18;105460;1256;61221;-77
2024/03/24 02:07:00;;;;;;;15.00;12.00;;;;;;;9.40;75.92;98396.42;105878;1261;74585;-74
2024/03/24 02:09:28;;;;;;;15.50;12.20;;;;;;;9.32;76.08;98380.83;105509;1256;70449;-75
2024/03/24 02:11:55;;;;;;;13.60;11.90;;;;;;;9.26;76.38;98387.69;105632;1259;72716;-73
2024/03/24 02:14:23;;;;;;;12.60;10.30;;;;;;;9.22;76.56;98391.91;105703;1253;61557;-76
2024/03/24 02:16:50;;;;;;;13.70;10.70;;;;;;;9.28;76.40;98389.25;105797;1258;61336;-75
2024/03/24 02:19:17;;;;;;;15.00;10.90;;;;;;;9.31;76.50;98388.04;106714;1256;74903;-74
2024/03/24 02:21:45;;;;;;;14.20;11.10;;;;;;;9.24;76.45;98382.16;106758;1256;69049;-76
2024/03/24 02:24:12;;;;;;;13.50;11.10;;;;;;;9.19;76.65;98380.42;105490;1254;71365;-73
2024/03/24 02:26:39;;;;;;;13.80;10.80;;;;;;;9.14;76.60;98380.17;105265;1262;61339;-76
2024/03/24 02:29:12;;;;;;;13.00;11.60;;;;;;;9.18;76.66;98374.79;105478;1255;61323;-75
2024/03/24 02:31:40;;;;;;;14.30;11.80;;;;;;;9.19;76.59;98375.00;106214;1256;73443;-77
2024/03/24 02:34:07;;;;;;;13.30;11.30;;;;;;;9.13;76.39;98375.80;105856;1256;70145;-75
2024/03/24 02:36:35;;;;;;;14.10;11.20;;;;;;;9.07;76.77;98374.98;106014;1254;71490;-76
2024/03/24 02:39:05;;;;;;;13.30;11.40;;;;;;;9.03;76.76;98376.63;106149;1257;62156;-76
2024/03/24 02:41:32;;;;;;;15.60;11.00;;;;;;;9.07;77.15;98380.57;105375;1261;61162;-75
2024/03/24 02:44:00;;;;;;;16.90;11.50;;;;;;;9.05;77.19;98375.58;105526;1258;74450;-75
2024/03/24 02:46:27;;;;;;;14.40;11.90;;;;;;;8.99;77.08;98375.08;105415;1259;68959;-76
2024/03/24 02:48:54;;;;;;;13.10;11.00;;;;;;;8.93;77.42;98377.56;105432;1255;71447;-75
2024/03/24 02:51:22;;;;;;;12.30;10.80;;;;;;;8.96;77.46;98374.61;105327;1256;61326;-73
2024/03/24 02:53:49;;;;;;;13.60;11.50;;;;;;;8.98;77.18;98376.88;104971;1256;485149;-75
2024/03/24 02:57:52;;;;;;;13.20;10.80;;;;;;;8.93;77.26;98369.54;102468;1291;601134;-76
2024/03/24 03:00:19;;;;;;;15.00;12.30;;;;;;;8.85;77.04;98369.14;105123;1272;59579;-76
2024/03/24 03:02:47;;;;;;;11.60;10.10;;;;;;;8.82;77.23;98369.23;104530;1268;59629;-77
2024/03/24 03:05:14;;;;;;;13.90;11.20;;;;;;;8.87;77.19;98366.47;104772;1273;73149;-75
2024/03/24 03:07:42;;;;;;;14.50;12.00;;;;;;;8.85;77.07;98369.14;104882;1274;70995;-77
2024/03/24 03:10:10;;;;;;;23.50;15.50;;;;;;;8.78;77.32;98368.13;104977;1268;72712;-75
2024/03/24 03:12:37;;;;;;;18.30;11.90;;;;;;;8.70;77.23;98375.29;105837;1265;191471;-73
2024/03/24 03:15:05;;;;;;;12.70;10.90;;;;;;;8.68;77.53;98367.96;106597;1267;58297;-73
2024/03/24 03:17:32;;;;;;;15.90;11.60;;;;;;;8.71;76.99;98366.56;105369;1270;73374;-76
2024/03/24 03:20:00;;;;;;;13.00;11.00;;;;;;;8.66;77.24;98365.30;105193;1265;70520;-73
2024/03/24 03:22:28;;;;;;;17.30;12.80;;;;;;;8.58;77.44;98357.66;105025;1265;72657;-76
2024/03/24 03:24:56;;;;;;;14.50;11.10;;;;;;;8.54;77.58;98369.54;104990;1270;62037;-76
2024/03/24 03:27:23;;;;;;;21.10;15.90;;;;;;;8.57;77.54;98362.20;105184;1259;60362;-74
2024/03/24 03:29:50;;;;;;;20.00;15.00;;;;;;;8.58;77.52;98362.79;105601;1259;73866;-74
2024/03/24 03:32:18;;;;;;;19.60;16.00;;;;;;;8.53;77.51;98360.82;105204;1262;69554;-75
2024/03/24 03:34:45;;;;;;;18.30;13.90;;;;;;;8.45;77.82;98362.81;105553;1261;71466;-76
2024/03/24 03:37:12;;;;;;;13.90;11.50;;;;;;;8.44;77.70;98367.36;105566;1259;61659;-74
2024/03/24 03:39:39;;;;;;;15.50;12.00;;;;;;;8.50;77.56;98358.34;105518;1259;60328;-76
2024/03/24 03:42:08;;;;;;;16.80;13.20;;;;;;;8.46;77.54;98362.67;105585;1259;73235;-77
2024/03/24 03:44:35;;;;;;;15.40;12.30;;;;;;;8.39;77.82;98355.27;105913;1259;70057;-76
2024/03/24 03:47:03;;;;;;;16.50;12.60;;;;;;;8.32;77.96;98358.21;105523;1259;72692;-78
2024/03/24 03:49:31;;;;;;;14.30;11.80;;;;;;;8.30;78.04;98357.34;105305;1261;60638;-76
2024/03/24 03:51:58;;;;;;;14.80;11.50;;;;;;;8.32;77.63;98352.69;105363;1259;60645;-75
2024/03/24 03:54:26;;;;;;;15.60;12.30;;;;;;;8.29;77.90;98351.87;105033;1262;73392;-75
2024/03/24 03:56:53;;;;;;;15.50;12.00;;;;;;;8.23;77.82;98358.08;105295;1260;70125;-76
2024/03/24 03:59:20;;;;;;;18.30;13.00;;;;;;;8.18;78.18;98359.13;105230;1262;72453;-77
2024/03/24 04:01:48;;;;;;;13.00;11.30;;;;;;;8.25;78.11;98365.59;105601;1265;61683;-75
2024/03/24 04:04:15;;;;;;;14.90;13.00;;;;;;;8.27;78.05;98364.99;105345;1264;60416;-75
2024/03/24 04:06:44;;;;;;;16.30;12.50;;;;;;;8.20;78.04;98365.81;106841;1262;72622;-76
2024/03/24 04:09:16;;;;;;;15.50;12.20;;;;;;;8.13;78.30;98372.49;107773;1259;68858;-76
2024/03/24 04:11:44;;;;;;;18.00;13.90;;;;;;;8.09;78.44;98364.51;106896;1259;70758;-77
2024/03/24 04:14:11;;;;;;;15.80;12.10;;;;;;;8.12;78.18;98364.31;105870;1259;60424;-75
2024/03/24 04:16:41;;;;;;;19.30;13.00;;;;;;;8.06;78.34;98363.10;105402;1259;60579;-77
2024/03/24 04:19:09;;;;;;;17.80;13.80;;;;;;;7.99;78.55;98357.77;105646;1263;74136;-78
2024/03/24 04:21:37;;;;;;;17.30;13.00;;;;;;;7.95;78.68;98350.52;105502;1259;69275;-78
2024/03/24 04:24:05;;;;;;;15.80;12.80;;;;;;;8.01;78.71;98347.65;105349;1262;72684;-78
2024/03/24 04:26:32;;;;;;;16.70;13.10;;;;;;;8.04;78.66;98351.31;105451;1264;60386;-76
2024/03/24 04:29:00;;;;;;;19.00;13.70;;;;;;;8.01;78.70;98353.27;105521;1263;60436;-75
2024/03/24 04:31:27;;;;;;;15.50;12.90;;;;;;;7.96;78.60;98355.32;105387;1259;72044;-75
2024/03/24 04:33:55;;;;;;;15.70;12.70;;;;;;;7.92;78.89;98358.48;105376;1259;68759;-77
2024/03/24 04:36:22;;;;;;;16.60;12.80;;;;;;;7.95;78.80;98359.67;105413;1259;72521;-77
2024/03/24 04:38:49;;;;;;;17.20;13.20;;;;;;;7.98;78.65;98355.23;105129;1262;60478;-75
2024/03/24 04:41:16;;;;;;;16.90;13.60;;;;;;;7.91;78.95;98358.52;105132;1264;60420;-77
2024/03/24 04:43:44;;;;;;;19.50;14.70;;;;;;;7.84;79.10;98352.34;105341;1265;71816;-77
2024/03/24 04:46:11;;;;;;;18.10;13.00;;;;;;;7.77;79.20;98355.61;105334;1264;68788;-76
2024/03/24 04:48:39;;;;;;;17.00;13.50;;;;;;;7.81;79.22;98356.45;105336;1259;72443;-74
2024/03/24 04:51:10;;;;;;;17.30;14.10;;;;;;;7.82;79.08;98358.05;105649;1259;60525;-75
2024/03/24 04:53:37;;;;;;;19.20;14.20;;;;;;;7.75;79.43;98356.28;105796;1259;60469;-75
2024/03/24 04:56:06;;;;;;;15.60;13.40;;;;;;;7.67;79.53;98348.20;105805;1264;73885;-78
2024/03/24 04:58:33;;;;;;;16.70;12.80;;;;;;;7.70;79.69;98349.95;106642;1259;70445;-77
2024/03/24 05:01:00;;;;;;;18.50;13.60;;;;;;;7.70;79.74;98354.05;107325;1260;71451;-77
2024/03/24 05:03:29;;;;;;;18.70;13.80;;;;;;;7.63;79.72;98357.67;105363;1264;60442;-74
2024/03/24 05:05:56;;;;;;;19.10;13.60;;;;;;;7.57;80.05;98352.98;105295;1259;60442;-79
2024/03/24 05:08:24;;;;;;;17.30;13.70;;;;;;;7.60;79.92;98348.62;105454;1259;72698;-77
2024/03/24 05:10:51;;;;;;;20.30;14.60;;;;;;;7.63;79.68;98346.16;105191;1264;69088;-75
2024/03/24 05:13:20;;;;;;;17.30;14.20;;;;;;;7.58;80.00;98350.30;105621;1264;73591;-76
2024/03/24 05:15:53;;;;;;;18.20;14.30;;;;;;;7.53;79.88;98347.02;105435;1259;60513;-75
2024/03/24 05:18:21;;;;;;;17.10;14.00;;;;;;;7.54;80.08;98348.01;105058;1264;60384;-76
2024/03/24 05:20:49;;;;;;;17.30;13.60;;;;;;;7.60;79.80;98345.30;105353;1264;73844;-75
2024/03/24 05:23:19;;;;;;;17.00;14.00;;;;;;;7.57;79.73;98350.95;105579;1259;69505;-75
2024/03/24 05:25:52;;;;;;;18.00;14.00;;;;;;;7.52;79.88;98347.02;105375;1260;73117;-76
2024/03/24 05:28:19;;;;;;;16.00;12.70;;;;;;;7.50;79.97;98347.61;105556;1264;60569;-77
2024/03/24 05:30:47;;;;;;;18.70;13.60;;;;;;;7.55;79.82;98351.02;105358;1259;60524;-74
2024/03/24 05:33:15;;;;;;;18.90;15.10;;;;;;;7.54;79.75;98358.45;105399;1259;72630;-76
2024/03/24 05:35:42;;;;;;;17.20;13.70;;;;;;;7.50;79.89;98355.95;105837;1259;68983;-77
2024/03/24 05:38:09;;;;;;;19.10;14.20;;;;;;;7.44;80.12;98356.59;105858;1263;71438;-76
2024/03/24 05:40:37;;;;;;;17.60;13.90;;;;;;;7.44;80.04;98362.25;105307;1264;60559;-78
2024/03/24 05:43:08;;;;;;;19.60;14.50;;;;;;;7.47;79.78;98355.14;105520;1265;60517;-76
2024/03/24 05:45:35;;;;;;;20.10;15.40;;;;;;;7.42;79.84;98352.73;105494;1264;73816;-78
2024/03/24 05:48:03;;;;;;;21.30;15.00;;;;;;;7.36;80.06;98348.60;105263;1259;70515;-78
2024/03/24 05:50:30;;;;;;;20.70;14.70;;;;;;;7.31;80.39;98342.23;105407;1264;71490;-76
2024/03/24 05:52:58;;;;;;;20.00;14.60;;;;;;;7.36;80.23;98342.75;105489;1265;61650;-75
2024/03/24 05:55:25;;;;;;;20.40;15.80;;;;;;;7.38;79.99;98344.98;105105;1264;60618;-77
2024/03/24 05:57:52;;;;;;;19.30;15.20;;;;;;;7.33;80.13;98341.30;107771;1259;72527;-76
2024/03/24 06:00:20;;;;;;;22.30;15.80;;;;;;;7.29;80.26;98341.80;107032;1259;68786;-74
2024/03/24 06:02:47;;;;;;;18.10;13.90;;;;;;;7.31;80.40;98347.48;105577;1260;73376;-77
2024/03/24 06:05:14;;;;;;;18.50;14.10;;;;;;;7.39;79.85;98349.55;105580;1259;60598;-75
2024/03/24 06:07:42;;;;;;;21.20;15.70;;;;;;;7.39;79.93;98339.58;105021;1264;60934;-75
2024/03/24 06:10:09;;;;;;;20.10;14.90;;;;;;;7.35;80.09;98337.37;105266;1264;73029;-77
2024/03/24 06:12:36;;;;;;;17.70;14.30;;;;;;;7.33;80.27;98335.52;105128;1257;69991;-76
2024/03/24 06:15:04;;;;;;;22.40;15.20;;;;;;;7.35;80.36;98332.10;105197;1262;74652;-76
2024/03/24 06:17:31;;;;;;;20.00;14.50;;;;;;;7.41;79.92;98333.44;105418;1260;61698;-74
2024/03/24 06:20:00;;;;;;;20.00;15.70;;;;;;;7.38;79.76;98351.18;105567;1259;60454;-74
2024/03/24 06:22:28;;;;;;;28.80;20.50;;;;;;;7.29;80.02;98342.66;105231;1262;73863;-75
2024/03/24 06:24:55;;;;;;;23.30;17.20;;;;;;;7.20;80.38;98351.66;105241;1264;70072;-75
2024/03/24 06:27:22;;;;;;;20.30;15.40;;;;;;;7.21;80.47;98345.38;105388;1259;75147;-75
2024/03/24 06:29:50;;;;;;;23.60;17.60;;;;;;;7.21;80.32;98336.73;105267;1263;60370;-77
2024/03/24 06:32:17;;;;;;;23.40;16.00;;;;;;;7.19;80.42;98340.55;105363;1258;60832;-75
2024/03/24 06:34:44;;;;;;;19.80;16.10;;;;;;;7.15;80.55;98358.98;105762;1257;73835;-78
2024/03/24 06:37:12;;;;;;;21.80;16.50;;;;;;;7.15;80.80;98337.77;107347;1258;68909;-77
2024/03/24 06:39:39;;;;;;;21.10;17.40;;;;;;;7.19;80.53;98336.90;107631;1258;71430;-77
2024/03/24 06:42:08;;;;;;;25.10;19.10;;;;;;;7.17;80.59;98341.77;105963;1259;60435;-77
2024/03/24 06:44:37;;;;;;;24.80;18.30;;;;;;;7.14;80.86;98346.34;107058;1263;60430;-76
2024/03/24 06:47:04;;;;;;;21.70;17.40;;;;;;;7.17;80.80;98341.95;106450;1258;72608;-78
2024/03/24 06:49:32;;;;;;;22.90;17.30;;;;;;;7.27;80.38;98343.45;105586;1259;68944;-77
2024/03/24 06:51:59;;;;;;;20.20;16.60;;;;;;;7.27;80.23;98332.70;106568;1257;71760;-77
2024/03/24 06:54:27;;;;;;;23.00;17.10;;;;;;;7.23;80.41;98332.93;107987;1258;59377;-76
2024/03/24 06:56:54;;;;;;;21.80;16.50;;;;;;;7.22;80.72;98334.55;106805;1260;60907;-76
2024/03/24 06:59:22;;;;;;;22.30;16.30;;;;;;;7.28;80.37;98339.19;105972;1257;73869;-75
2024/03/24 07:01:49;;;;;;;20.40;16.30;;;;;;;7.29;80.26;98335.38;105893;1263;69035;-79
2024/03/24 07:04:17;;;;;;;23.40;16.60;;;;;;;7.23;80.53;98334.33;105857;1260;71792;-74
2024/03/24 07:06:44;;;;;;;24.90;16.60;;;;;;;7.21;80.77;98338.88;105697;1261;61759;-77
2024/03/24 07:09:11;;;;;;;21.00;16.50;;;;;;;7.27;80.62;98345.38;106021;1258;61227;-74
2024/03/24 07:11:38;;;;;;;20.80;17.60;;;;;;;7.31;80.40;98345.27;105882;1255;73589;-75
2024/03/24 07:14:06;;;;;;;19.20;16.10;;;;;;;7.24;80.52;98342.48;105465;1256;70328;-75
2024/03/24 07:16:34;;;;;;;20.70;15.60;;;;;;;7.18;80.72;98339.57;105778;1260;71139;-74
2024/03/24 07:19:01;;;;;;;18.90;14.90;;;;;;;7.20;80.95;98345.82;105599;1256;61339;-77
2024/03/24 07:21:28;;;;;;;21.20;16.50;;;;;;;7.25;80.77;98335.89;105573;1261;61258;-74
2024/03/24 07:23:55;;;;;;;22.40;16.80;;;;;;;7.23;80.80;98327.17;105657;1260;75156;-77
2024/03/24 07:26:23;;;;;;;20.30;15.80;;;;;;;7.22;81.43;98325.30;105844;1260;70383;-74
2024/03/24 07:28:51;;;;;;;22.50;16.30;;;;;;;7.32;81.47;98319.90;105837;1256;71804;-75
2024/03/24 07:31:19;;;;;;;24.80;17.40;;;;;;;7.43;81.56;98317.37;105795;1261;61292;-75
2024/03/24 07:33:46;;;;;;;19.70;15.70;;;;;;;7.45;81.53;98317.11;105792;1256;61288;-79
2024/03/24 07:36:13;;;;;;;21.30;17.70;;;;;;;7.49;81.56;98310.52;105849;1260;74411;-76
2024/03/24 07:38:41;;;;;;;22.60;17.00;;;;;;;7.54;81.29;98310.70;105933;1258;71566;-77
2024/03/24 07:41:08;;;;;;;21.10;16.70;;;;;;;7.65;80.99;98309.32;105772;1257;72575;-75
2024/03/24 07:43:36;;;;;;;19.90;16.50;;;;;;;7.79;80.23;98311.67;105647;1265;61751;-76
2024/03/24 07:46:04;;;;;;;20.90;16.90;;;;;;;7.83;80.47;98309.21;105758;1256;61636;-76
2024/03/24 07:48:31;;;;;;;23.00;18.40;;;;;;;7.87;80.43;98300.38;107127;1256;73496;-77
2024/03/24 07:50:59;;;;;;;21.20;16.80;;;;;;;7.94;80.17;98299.89;108014;1256;69944;-76
2024/03/24 07:53:26;;;;;;;22.20;15.90;;;;;;;8.05;79.64;98299.37;106343;1256;72634;-77
2024/03/24 07:55:53;;;;;;;22.30;17.10;;;;;;;8.16;79.21;98296.27;105824;1261;61118;-75
2024/03/24 07:58:21;;;;;;;19.80;16.60;;;;;;;8.23;79.05;98291.57;105750;1261;61150;-77
2024/03/24 08:00:48;;;;;;;24.50;18.30;;;;;;;8.26;78.50;98291.77;105711;1256;75898;-77
2024/03/24 08:03:17;;;;;;;21.00;17.60;;;;;;;8.21;78.24;98282.23;105770;1262;70596;-76
2024/03/24 08:05:44;;;;;;;20.80;16.60;;;;;;;8.20;78.09;98282.81;105486;1260;71718;-76
2024/03/24 08:08:12;;;;;;;23.20;16.90;;;;;;;8.27;78.06;98263.32;105793;1261;62594;-76
2024/03/24 08:10:40;;;;;;;20.20;15.80;;;;;;;8.33;78.02;98266.69;105876;1256;61405;-76
2024/03/24 08:13:07;;;;;;;21.80;17.00;;;;;;;8.31;78.06;98263.89;105836;1255;74672;-75
2024/03/24 08:15:34;;;;;;;21.40;17.80;;;;;;;8.27;77.98;98264.58;105770;1262;70389;-75
2024/03/24 08:18:02;;;;;;;19.60;16.00;;;;;;;8.25;78.29;98265.75;105568;1262;71651;-76
2024/03/24 08:20:29;;;;;;;23.70;17.50;;;;;;;8.32;78.71;98244.72;105715;1256;61821;-75
2024/03/24 08:22:57;;;;;;;23.30;16.80;;;;;;;8.42;78.75;98258.67;105755;1257;61773;-74
2024/03/24 08:25:24;;;;;;;23.00;17.90;;;;;;;8.42;78.81;98246.55;105614;1261;73778;-77
2024/03/24 08:27:52;;;;;;;23.00;18.10;;;;;;;8.40;79.22;98261.02;105763;1254;69991;-77
2024/03/24 08:30:20;;;;;;;22.30;17.50;;;;;;;8.38;79.48;98245.13;105722;1260;71727;-76
2024/03/24 08:32:47;;;;;;;22.80;17.00;;;;;;;8.34;79.79;98241.35;105710;1256;62535;-75
2024/03/24 08:35:14;;;;;;;22.90;17.50;;;;;;;8.44;80.17;98233.58;105566;1260;62253;-74
2024/03/24 08:37:43;;;;;;;21.90;17.60;;;;;;;8.54;80.26;98229.34;105807;1260;76502;-77
2024/03/24 08:40:11;;;;;;;22.40;16.80;;;;;;;8.58;80.40;98223.79;105883;1257;69200;-77
2024/03/24 08:42:39;;;;;;;26.40;18.90;;;;;;;8.59;80.60;98227.17;106199;1257;74050;-76
2024/03/24 08:45:07;;;;;;;24.50;18.20;;;;;;;8.59;80.52;98228.92;107731;1257;61223;-76
2024/03/24 08:47:34;;;;;;;22.40;16.30;;;;;;;8.61;80.71;98241.13;107751;1256;60835;-78
2024/03/24 08:50:03;;;;;;;20.30;16.80;;;;;;;8.71;80.10;98252.11;105865;1261;74854;-77
2024/03/24 08:52:30;;;;;;;20.70;16.90;;;;;;;8.71;79.80;98252.61;106149;1261;71876;-75
2024/03/24 08:54:58;;;;;;;21.30;17.70;;;;;;;8.64;80.30;98251.70;105831;1260;75022;-75
2024/03/24 08:57:26;;;;;;;23.40;17.10;;;;;;;8.59;80.62;98252.10;105897;1257;62590;-78
2024/03/24 08:59:55;;;;;;;23.00;16.40;;;;;;;8.52;81.03;98253.30;105868;1257;61488;-76
2024/03/24 09:02:23;;;;;;;22.70;16.90;;;;;;;8.54;81.05;98251.73;105765;1261;73528;-77
2024/03/24 09:04:53;;;;;;;22.70;17.50;;;;;;;8.60;80.93;98244.59;105755;1260;71323;-77
2024/03/24 09:07:21;;;;;;;23.90;18.30;;;;;;;8.58;81.32;98244.80;105865;1259;71806;-77
2024/03/24 09:09:48;;;;;;;20.90;15.70;;;;;;;8.55;81.97;98231.79;105877;1257;61316;-77
2024/03/24 09:12:16;;;;;;;25.20;16.40;;;;;;;8.61;82.19;98217.27;105973;1261;62343;-75
2024/03/24 09:14:43;;;;;;;22.40;17.80;;;;;;;8.69;82.38;98220.41;105953;1262;74678;-78
2024/03/24 09:17:10;;;;;;;22.10;17.80;;;;;;;8.69;82.02;98223.09;105786;1262;68720;-73
2024/03/24 09:19:38;;;;;;;24.80;18.50;;;;;;;8.64;81.95;98226.65;106037;1259;71808;-76
2024/03/24 09:22:05;;;;;;;18.50;15.40;;;;;;;8.61;81.98;98222.48;105966;1257;63531;-77
2024/03/24 09:24:33;;;;;;;19.00;16.30;;;;;;;8.65;81.69;98217.56;105824;1256;61217;-76
2024/03/24 09:27:02;;;;;;;22.50;16.80;;;;;;;8.67;81.97;98212.54;105916;1258;74682;-75
2024/03/24 09:29:30;;;;;;;24.70;17.10;;;;;;;8.65;82.59;98213.36;105932;1261;69121;-74
2024/03/24 09:31:58;;;;;;;22.60;16.70;;;;;;;8.69;82.58;98215.98;105865;1262;71472;-77
2024/03/24 09:34:25;;;;;;;20.90;16.80;;;;;;;8.82;82.40;98211.36;105885;1256;61316;-77
2024/03/24 09:36:53;;;;;;;24.10;16.50;;;;;;;8.94;82.63;98213.77;105863;1261;61164;-76
2024/03/24 09:39:20;;;;;;;23.20;17.80;;;;;;;8.95;82.19;98209.98;106457;1257;74386;-75
2024/03/24 09:41:48;;;;;;;22.40;17.10;;;;;;;8.90;81.86;98211.30;107606;1256;71598;-73
2024/03/24 09:44:15;;;;;;;20.50;16.20;;;;;;;8.89;81.23;98225.14;107007;1257;74022;-75
2024/03/24 09:46:44;;;;;;;20.90;16.80;;;;;;;8.89;81.52;98217.98;106101;1261;62842;-76
2024/03/24 09:49:14;;;;;;;23.60;18.50;;;;;;;8.85;82.23;98233.55;106022;1254;61346;-75
2024/03/24 09:51:46;;;;;;;24.30;17.00;;;;;;;8.82;82.52;98244.12;105992;1259;74857;-77
2024/03/24 09:54:14;;;;;;;19.40;15.30;;;;;;;8.85;82.13;98234.98;106059;1261;68892;-77
2024/03/24 09:56:41;;;;;;;22.60;17.40;;;;;;;8.87;81.99;98229.17;105801;1258;71545;-74
2024/03/24 09:59:09;;;;;;;21.70;16.50;;;;;;;8.85;81.81;98237.83;105926;1256;61628;-76
2024/03/24 10:01:40;;;;;;;21.00;16.30;;;;;;;8.82;81.34;98232.23;105872;1263;61218;-75
2024/03/24 10:04:07;;;;;;;20.00;15.90;;;;;;;8.80;81.44;98228.14;105865;1257;76684;-76
2024/03/24 10:06:34;;;;;;;17.20;15.00;;;;;;;8.87;81.04;98233.73;106002;1259;72617;-77
2024/03/24 10:09:04;;;;;;;19.80;16.10;;;;;;;8.84;81.02;98237.09;106056;1261;72570;-77
2024/03/24 10:11:33;;;;;;;21.40;15.90;;;;;;;8.77;81.25;98241.45;106047;1272;61338;-77
2024/03/24 10:14:04;;;;;;;18.70;15.60;;;;;;;8.75;81.58;98242.65;106294;1263;60169;-78
2024/03/24 10:16:33;;;;;;;20.10;16.50;;;;;;;8.85;81.70;98247.45;106203;1261;76019;-76
2024/03/24 10:19:11;;;;;;;21.70;15.80;;;;;;;8.94;81.29;98247.91;106182;1257;70133;-77
2024/03/24 10:21:39;;;;;;;21.00;16.20;;;;;;;8.89;81.62;98254.44;105928;1263;74907;-76
2024/03/24 10:24:07;;;;;;;21.00;15.80;;;;;;;8.82;81.77;98254.46;105951;1255;61829;-77
2024/03/24 10:26:37;;;;;;;15.80;14.10;;;;;;;8.81;81.73;98246.08;105755;1261;62278;-76
2024/03/24 10:29:04;;;;;;;20.40;16.30;;;;;;;8.84;82.27;98245.92;105834;1262;76881;-75
2024/03/24 10:31:33;;;;;;;20.70;16.30;;;;;;;8.81;82.44;98240.98;106048;1260;71976;-76
2024/03/24 10:34:03;;;;;;;17.30;14.50;;;;;;;8.79;82.72;98235.72;106193;1254;74309;-77
2024/03/24 10:36:31;;;;;;;19.90;15.40;;;;;;;8.81;82.71;98230.35;106515;1257;61320;-75
2024/03/24 10:39:04;;;;;;;20.10;16.70;;;;;;;8.89;82.61;98224.20;107880;1257;61205;-75
2024/03/24 10:41:31;;;;;;;19.00;15.90;;;;;;;8.92;82.35;98225.01;106127;1258;73657;-77
2024/03/24 10:43:59;;;;;;;21.10;17.30;;;;;;;8.88;81.74;98236.84;105951;1270;68436;-76
2024/03/24 10:46:26;;;;;;;21.20;15.80;;;;;;;8.82;81.52;98229.09;105976;1254;71935;-75
2024/03/24 10:48:54;;;;;;;17.30;15.00;;;;;;;8.84;81.33;98229.46;106003;1256;62227;-75
2024/03/24 10:51:21;;;;;;;18.40;14.50;;;;;;;8.86;81.26;98235.63;105758;1257;61527;-76
2024/03/24 10:53:49;;;;;;;19.10;16.00;;;;;;;8.80;81.57;98230.55;105950;1255;75742;-75
2024/03/24 10:56:17;;;;;;;19.10;15.20;;;;;;;8.75;82.07;98229.73;105898;1260;73203;-76
2024/03/24 10:58:44;;;;;;;19.10;14.80;;;;;;;8.82;82.20;98231.85;105808;1258;75070;-75
2024/03/24 11:01:11;;;;;;;17.90;14.90;;;;;;;8.89;82.12;98225.06;105741;1260;61334;-76
2024/03/24 11:03:41;;;;;;;16.80;14.20;;;;;;;8.88;82.25;98224.11;105775;1260;61241;-76
2024/03/24 11:06:09;;;;;;;20.20;15.10;;;;;;;8.85;81.84;98213.59;105695;1257;74953;-75
2024/03/24 11:08:40;;;;;;;17.80;14.70;;;;;;;8.91;82.22;98220.02;105872;1258;70549;-76
2024/03/24 11:11:07;;;;;;;17.90;15.30;;;;;;;9.01;81.89;98214.48;105798;1259;72837;-76
2024/03/24 11:13:35;;;;;;;19.90;15.60;;;;;;;9.01;81.70;98224.80;105635;1262;61395;-74
2024/03/24 11:16:03;;;;;;;20.00;15.80;;;;;;;9.01;81.50;98212.66;105737;1259;61340;-75
2024/03/24 11:18:30;;;;;;;21.50;15.60;;;;;;;8.98;81.64;98217.25;105748;1257;72605;-74
2024/03/24 11:21:00;;;;;;;19.40;14.10;;;;;;;9.05;81.22;98224.75;105739;1260;71599;-74